createdAt,value
2022-12-11T00:01:17.103Z,98056.52
2022-12-11T00:03:48.143Z,98050.31
2022-12-11T00:06:19.187Z,98046.77
2022-12-11T00:08:48.060Z,98050.70
2022-12-11T00:11:17.221Z,98054.80
2022-12-11T00:13:45.374Z,98057.19
2022-12-11T00:16:13.579Z,98060.38
2022-12-11T00:18:41.643Z,98055.64
2022-12-11T00:21:13.741Z,98052.54
2022-12-11T00:23:42.551Z,98044.86
2022-12-11T00:26:14.604Z,98042.80
2022-12-11T00:28:44.236Z,98039.16
2022-12-11T00:31:18.880Z,98042.53
2022-12-11T00:33:50.547Z,98037.38
2022-12-11T00:36:25.338Z,98034.65
2022-12-11T00:38:54.414Z,98036.19
2022-12-11T00:41:23.060Z,98040.33
2022-12-11T00:43:51.500Z,98033.90
2022-12-11T00:46:19.720Z,98032.56
2022-12-11T00:48:50.060Z,98032.54
2022-12-11T00:51:18.309Z,98032.53
2022-12-11T00:53:46.455Z,98026.84
2022-12-11T00:56:20.094Z,98021.47
2022-12-11T00:58:49.444Z,98022.81
2022-12-11T01:01:24.581Z,98018.87
2022-12-11T01:03:54.361Z,98017.94
2022-12-11T01:06:25.344Z,98016.79
2022-12-11T01:09:13.810Z,98015.73
2022-12-11T01:11:43.464Z,98016.69
2022-12-11T01:14:12.752Z,98021.48
2022-12-11T01:16:40.876Z,98020.95
2022-12-11T01:19:09.192Z,98016.80
2022-12-11T01:21:37.226Z,98012.69
2022-12-11T01:24:05.799Z,98014.46
2022-12-11T01:26:33.904Z,98014.83
2022-12-11T01:29:02.004Z,98015.48
2022-12-11T01:31:30.176Z,98022.66
2022-12-11T01:33:58.249Z,98021.27
2022-12-11T01:36:26.260Z,98019.74
2022-12-11T01:38:54.634Z,98014.43
2022-12-11T01:41:22.919Z,98016.92
2022-12-11T01:44:26.980Z,98017.46
2022-12-11T01:46:55.118Z,98008.88
2022-12-11T01:49:27.646Z,98000.65
2022-12-11T01:52:10.726Z,97998.63
2022-12-11T01:54:39.150Z,97992.77
2022-12-11T01:57:09.567Z,97983.69
2022-12-11T01:59:41.446Z,97985.27
2022-12-11T02:02:12.549Z,97987.02
2022-12-11T02:04:43.209Z,97988.17
2022-12-11T02:07:11.284Z,97993.48
2022-12-11T02:09:42.716Z,97995.66
2022-12-11T02:12:30.843Z,97982.52
2022-12-11T02:15:07.856Z,97972.02
2022-12-11T02:17:44.223Z,97968.88
2022-12-11T02:20:30.361Z,97968.35
2022-12-11T02:23:13.393Z,97977.78
2022-12-11T02:25:54.415Z,97975.46
2022-12-11T02:28:32.111Z,97969.23
2022-12-11T02:31:13.151Z,97968.39
2022-12-11T02:33:48.751Z,97970.89
2022-12-11T02:36:20.830Z,97968.77
2022-12-11T02:38:52.084Z,97962.91
2022-12-11T02:41:22.918Z,97960.72
2022-12-11T02:43:52.686Z,97957.91
2022-12-11T02:46:22.407Z,97958.02
2022-12-11T02:48:52.266Z,97957.31
2022-12-11T02:51:27.153Z,97957.59
2022-12-11T02:53:58.521Z,97958.36
2022-12-11T02:56:36.727Z,97956.65
2022-12-11T02:59:15.702Z,97948.98
2022-12-11T03:01:44.186Z,97948.47
2022-12-11T03:04:12.330Z,97957.13
2022-12-11T03:06:46.729Z,97953.88
2022-12-11T03:09:14.997Z,97954.02
2022-12-11T03:11:43.010Z,97951.42
2022-12-11T03:14:11.601Z,97953.78
2022-12-11T03:16:46.579Z,97950.76
2022-12-11T03:19:28.140Z,97944.10
2022-12-11T03:22:16.701Z,97938.20
2022-12-11T03:25:08.776Z,97932.70
2022-12-11T03:27:41.630Z,97928.66
2022-12-11T03:30:19.154Z,97930.35
2022-12-11T03:32:53.319Z,97917.20
2022-12-11T03:35:28.506Z,97913.66
2022-12-11T03:38:00.741Z,97911.39
2022-12-11T03:40:33.393Z,97909.80
2022-12-11T03:43:03.326Z,97901.21
2022-12-11T03:45:32.936Z,97895.49
2022-12-11T03:48:03.046Z,97891.33
2022-12-11T03:50:33.110Z,97883.63
2022-12-11T03:53:03.404Z,97873.38
2022-12-11T03:55:33.917Z,97865.63
2022-12-11T03:58:02.243Z,97860.27
2022-12-11T04:00:30.424Z,97862.13
2022-12-11T04:03:14.533Z,97857.80
2022-12-11T04:05:49.237Z,97854.47
2022-12-11T04:08:19.028Z,97858.20
2022-12-11T04:10:47.542Z,97863.39
2022-12-11T04:13:15.593Z,97864.13
2022-12-11T04:15:43.710Z,97868.99
2022-12-11T04:18:30.446Z,97870.30
2022-12-11T04:21:17.056Z,97864.96
2022-12-11T04:24:03.785Z,97866.33
2022-12-11T04:26:31.836Z,97871.60
2022-12-11T04:28:59.858Z,97873.38
2022-12-11T04:31:30.139Z,97875.63
2022-12-11T04:33:58.318Z,97878.89
2022-12-11T04:36:26.410Z,97881.95
2022-12-11T04:38:54.435Z,97887.02
2022-12-11T04:41:22.459Z,97893.98
2022-12-11T04:43:50.481Z,97892.09
2022-12-11T04:46:21.457Z,97895.88
2022-12-11T04:48:56.810Z,97898.39
2022-12-11T04:51:26.831Z,97893.53
2022-12-11T04:53:55.390Z,97892.95
2022-12-11T04:56:23.598Z,97888.58
2022-12-11T04:58:51.621Z,97885.27
2022-12-11T05:01:22.989Z,97882.08
2022-12-11T05:03:51.452Z,97884.80
2022-12-11T05:06:19.518Z,97882.34
2022-12-11T05:08:47.693Z,97877.35
2022-12-11T05:11:16.318Z,97875.41
2022-12-11T05:13:45.585Z,97875.27
2022-12-11T05:16:16.942Z,97870.13
2022-12-11T05:18:45.176Z,97867.30
2022-12-11T05:21:14.892Z,97861.92
2022-12-11T05:23:43.193Z,97856.40
2022-12-11T05:26:17.198Z,97854.83
2022-12-11T05:28:46.434Z,97850.98
2022-12-11T05:31:17.918Z,97852.63
2022-12-11T05:33:47.938Z,97844.60
2022-12-11T05:36:31.825Z,97838.86
2022-12-11T05:39:01.125Z,97831.52
2022-12-11T05:41:32.661Z,97830.14
2022-12-11T05:44:00.893Z,97828.88
2022-12-11T05:46:30.985Z,97829.80
2022-12-11T05:49:01.312Z,97826.13
2022-12-11T05:51:30.397Z,97827.02
2022-12-11T05:53:58.637Z,97821.34
2022-12-11T05:56:29.719Z,97822.30
2022-12-11T05:58:59.412Z,97820.73
2022-12-11T06:01:36.837Z,97815.58
2022-12-11T06:04:06.881Z,97813.42
2022-12-11T06:06:35.080Z,97812.80
2022-12-11T06:09:04.722Z,97813.38
2022-12-11T06:11:34.117Z,97815.42
2022-12-11T06:14:03.744Z,97814.91
2022-12-11T06:16:32.504Z,97816.04
2022-12-11T06:19:00.657Z,97813.73
2022-12-11T06:21:31.825Z,97810.96
2022-12-11T06:24:02.822Z,97813.14
2022-12-11T06:26:32.223Z,97812.81
2022-12-11T06:29:00.355Z,97815.92
2022-12-11T06:31:28.468Z,97812.65
2022-12-11T06:33:56.595Z,97808.69
2022-12-11T06:36:25.320Z,97807.66
2022-12-11T06:38:55.489Z,97809.68
2022-12-11T06:41:23.560Z,97812.15
2022-12-11T06:43:51.659Z,97810.95
2022-12-11T06:46:20.906Z,97807.55
2022-12-11T06:48:49.821Z,97806.16
2022-12-11T06:51:21.696Z,97807.67
2022-12-11T06:53:54.428Z,97808.02
2022-12-11T06:56:23.810Z,97803.92
2022-12-11T06:58:52.483Z,97796.40
2022-12-11T07:01:24.924Z,97801.56
2022-12-11T07:03:58.647Z,97802.48
2022-12-11T07:06:28.811Z,97799.20
2022-12-11T07:08:57.154Z,97802.77
2022-12-11T07:11:25.209Z,97799.30
2022-12-11T07:13:53.184Z,97802.98
2022-12-11T07:16:21.701Z,97798.94
2022-12-11T07:18:51.402Z,97797.06
2022-12-11T07:21:20.990Z,97795.02
2022-12-11T07:23:50.477Z,97795.27
2022-12-11T07:26:21.073Z,97791.29
2022-12-11T07:28:49.470Z,97792.95
2022-12-11T07:31:24.052Z,97800.64
2022-12-11T07:34:05.414Z,97801.51
2022-12-11T07:36:34.575Z,97792.63
2022-12-11T07:39:02.634Z,97791.27
2022-12-11T07:41:31.937Z,97796.28
2022-12-11T07:44:01.472Z,97799.05
2022-12-11T07:46:32.222Z,97794.27
2022-12-11T07:49:01.095Z,97796.40
2022-12-11T07:51:31.718Z,97800.81
2022-12-11T07:54:13.084Z,97796.83
2022-12-11T07:56:43.892Z,97797.11
2022-12-11T07:59:12.813Z,97799.27
2022-12-11T08:01:42.737Z,97805.99
2022-12-11T08:04:15.607Z,97802.23
2022-12-11T08:06:43.919Z,97801.55
2022-12-11T08:09:20.936Z,97802.77
2022-12-11T08:11:50.961Z,97809.08
2022-12-11T08:14:19.693Z,97811.58
2022-12-11T08:16:49.049Z,97805.92
2022-12-11T08:19:18.065Z,97807.14
2022-12-11T08:21:46.956Z,97810.05
2022-12-11T08:24:20.354Z,97812.43
2022-12-11T08:26:49.200Z,97810.51
2022-12-11T08:29:17.659Z,97805.52
2022-12-11T08:31:45.707Z,97800.95
2022-12-11T08:34:14.371Z,97802.55
2022-12-11T08:36:42.718Z,97801.04
2022-12-11T08:39:10.725Z,97802.73
2022-12-11T08:41:38.894Z,97801.54
2022-12-11T08:44:16.275Z,97802.89
2022-12-11T08:46:46.807Z,97804.91
2022-12-11T08:49:14.896Z,97801.73
2022-12-11T08:51:42.954Z,97801.45
2022-12-11T08:54:11.846Z,97802.86
2022-12-11T08:56:39.886Z,97802.34
2022-12-11T08:59:08.045Z,97802.70
2022-12-11T09:01:36.180Z,97797.20
2022-12-11T09:04:04.330Z,97795.66
2022-12-11T09:06:33.221Z,97796.40
2022-12-11T09:09:01.772Z,97800.05
2022-12-11T09:11:33.434Z,97800.63
2022-12-11T09:14:07.216Z,97793.23
2022-12-11T09:16:40.745Z,97788.68
2022-12-11T09:19:14.269Z,97786.04
2022-12-11T09:21:43.939Z,97788.41
2022-12-11T09:24:13.399Z,97785.58
2022-12-11T09:26:41.889Z,97787.23
2022-12-11T09:29:12.361Z,97786.39
2022-12-11T09:31:40.945Z,97786.53
2022-12-11T09:34:12.736Z,97788.21
2022-12-11T09:36:41.749Z,97788.16
2022-12-11T09:39:12.705Z,97781.34
2022-12-11T09:41:48.003Z,97783.08
2022-12-11T09:44:37.689Z,97781.38
2022-12-11T09:47:20.810Z,97779.05
2022-12-11T09:49:58.252Z,97774.98
2022-12-11T09:52:32.723Z,97773.52
2022-12-11T09:55:12.148Z,97774.56
2022-12-11T09:57:46.804Z,97778.50
2022-12-11T10:00:27.621Z,97780.77
2022-12-11T10:03:20.434Z,97777.30
2022-12-11T10:06:33.070Z,97779.90
2022-12-11T10:09:06.429Z,97790.73
2022-12-11T10:11:56.871Z,97790.05
2022-12-11T10:14:59.531Z,97792.71
2022-12-11T10:17:37.176Z,97794.51
2022-12-11T10:20:35.344Z,97797.06
2022-12-11T10:23:08.102Z,97798.08
2022-12-11T10:25:40.408Z,97795.46
2022-12-11T10:28:17.439Z,97795.70
2022-12-11T10:31:11.555Z,97791.52
2022-12-11T10:33:42.274Z,97781.23
2022-12-11T10:36:10.807Z,97776.85
2022-12-11T10:38:43.614Z,97772.86
2022-12-11T10:41:17.534Z,97769.39
2022-12-11T10:43:48.539Z,97761.01
2022-12-11T10:46:23.304Z,97751.42
2022-12-11T10:48:57.102Z,97754.55
2022-12-11T10:51:30.911Z,97759.50
2022-12-11T10:54:31.509Z,97759.44
2022-12-11T10:57:02.386Z,97757.06
2022-12-11T10:59:47.719Z,97764.46
2022-12-11T11:02:38.909Z,97767.34
2022-12-11T11:05:29.765Z,97765.02
2022-12-11T11:08:22.671Z,97771.70
2022-12-11T11:10:57.047Z,97769.63
2022-12-11T11:13:30.301Z,97772.83
2022-12-11T11:16:12.611Z,97777.67
2022-12-11T11:18:43.541Z,97777.09
2022-12-11T11:21:19.998Z,97779.87
2022-12-11T11:23:53.277Z,97777.91
2022-12-11T11:26:23.229Z,97780.42
2022-12-11T11:28:55.748Z,97784.09
2022-12-11T11:31:35.505Z,97779.43
2022-12-11T11:34:08.436Z,97780.27
2022-12-11T11:36:38.589Z,97784.50
2022-12-11T11:39:20.613Z,97777.47
2022-12-11T11:41:57.501Z,97783.70
2022-12-11T11:44:34.879Z,97784.52
2022-12-11T11:47:14.134Z,97785.53
2022-12-11T11:49:56.008Z,97780.11
2022-12-11T11:52:45.600Z,97784.92
2022-12-11T11:55:35.586Z,97783.18
2022-12-11T11:58:23.134Z,97779.38
2022-12-11T12:00:54.861Z,97772.73
2022-12-11T12:03:25.492Z,97764.81
2022-12-11T12:06:15.115Z,97760.34
2022-12-11T12:09:16.702Z,97764.25
2022-12-11T12:12:03.637Z,97774.81
2022-12-11T12:15:13.998Z,97771.73
2022-12-11T12:17:56.321Z,97768.71
2022-12-11T12:20:36.770Z,97777.81
2022-12-11T12:23:37.311Z,97791.19
2022-12-11T12:26:21.675Z,97788.03
2022-12-11T12:28:57.959Z,97781.25
2022-12-11T12:31:28.930Z,97779.59
2022-12-11T12:34:15.125Z,97781.15
2022-12-11T12:37:29.115Z,97783.75
2022-12-11T12:40:14.888Z,97780.69
2022-12-11T12:43:01.192Z,97783.94
2022-12-11T12:45:53.440Z,97787.94
2022-12-11T12:48:25.079Z,97791.27
2022-12-11T12:50:53.579Z,97791.23
2022-12-11T12:53:26.031Z,97789.96
2022-12-11T12:55:55.232Z,97792.31
2022-12-11T12:58:28.721Z,97791.03
2022-12-11T13:01:17.626Z,97792.70
2022-12-11T13:04:02.481Z,97793.64
2022-12-11T13:06:33.090Z,97791.29
2022-12-11T13:09:30.493Z,97792.55
2022-12-11T13:11:58.557Z,97794.58
2022-12-11T13:14:32.721Z,97792.67
2022-12-11T13:17:21.914Z,97793.48
2022-12-11T13:19:57.636Z,97792.41
2022-12-11T13:22:25.708Z,97789.11
2022-12-11T13:24:53.696Z,97782.55
2022-12-11T13:27:43.794Z,97785.25
2022-12-11T13:30:14.552Z,97797.39
2022-12-11T13:33:01.035Z,97803.55
2022-12-11T13:35:30.663Z,97807.55
2022-12-11T13:38:06.386Z,97813.30
2022-12-11T13:40:40.372Z,97818.27
2022-12-11T13:43:25.277Z,97816.48
2022-12-11T13:45:57.900Z,97822.39
2022-12-11T13:48:39.458Z,97827.84
2022-12-11T13:51:07.520Z,97834.65
2022-12-11T13:53:35.530Z,97834.98
2022-12-11T13:56:06.812Z,97840.02
2022-12-11T13:58:38.157Z,97840.67
2022-12-11T14:01:14.686Z,97844.73
2022-12-11T14:03:55.601Z,97849.51
2022-12-11T14:06:26.450Z,97854.27
2022-12-11T14:08:57.981Z,97858.68
2022-12-11T14:11:30.203Z,97861.70
2022-12-11T14:14:01.495Z,97866.16
2022-12-11T14:16:30.689Z,97865.20
2022-12-11T14:19:05.438Z,97863.34
2022-12-11T14:21:34.241Z,97864.66
2022-12-11T14:24:05.309Z,97864.14
2022-12-11T14:26:38.024Z,97861.02
2022-12-11T14:29:07.300Z,97865.30
2022-12-11T14:31:41.099Z,97864.63
2022-12-11T14:34:16.581Z,97862.16
2022-12-11T14:36:48.146Z,97850.21
2022-12-11T14:39:36.753Z,97847.23
2022-12-11T14:42:10.812Z,97850.44
2022-12-11T14:45:16.259Z,97846.54
2022-12-11T14:47:45.092Z,97842.16
2022-12-11T14:50:28.459Z,97841.29
2022-12-11T14:53:02.887Z,97842.29
2022-12-11T14:55:36.054Z,97840.66
2022-12-11T14:58:29.231Z,97834.02
2022-12-11T15:00:57.219Z,97837.91
2022-12-11T15:03:33.671Z,97837.54
2022-12-11T15:06:03.528Z,97837.52
2022-12-11T15:08:35.301Z,97839.65
2022-12-11T15:11:03.406Z,97838.07
2022-12-11T15:13:33.266Z,97845.92
2022-12-11T15:16:02.023Z,97858.73
2022-12-11T15:18:33.878Z,97866.70
2022-12-11T15:21:04.292Z,97870.27
2022-12-11T15:23:34.836Z,97875.45
2022-12-11T15:26:03.263Z,97889.63
2022-12-11T15:28:37.373Z,97896.77
2022-12-11T15:31:25.544Z,97899.71
2022-12-11T15:33:54.026Z,97901.15
2022-12-11T15:36:32.517Z,97905.42
2022-12-11T15:39:02.948Z,97907.77
2022-12-11T15:41:34.818Z,97908.49
2022-12-11T15:44:04.660Z,97908.14
2022-12-11T15:46:36.685Z,97912.80
2022-12-11T15:49:12.972Z,97911.20
2022-12-11T15:51:43.357Z,97913.35
2022-12-11T15:54:11.696Z,97917.41
2022-12-11T15:56:40.148Z,97922.70
2022-12-11T15:59:08.228Z,97929.80
2022-12-11T16:01:36.447Z,97937.91
2022-12-11T16:04:05.337Z,97941.96
2022-12-11T16:06:34.493Z,97944.00
2022-12-11T16:09:05.219Z,97940.25
2022-12-11T16:11:33.327Z,97937.67
2022-12-11T16:14:04.524Z,97937.69
2022-12-11T16:16:32.641Z,97937.77
2022-12-11T16:19:00.985Z,97934.71
2022-12-11T16:21:29.046Z,97938.80
2022-12-11T16:23:57.111Z,97940.13
2022-12-11T16:26:25.612Z,97937.20
2022-12-11T16:28:53.667Z,97926.09
2022-12-11T16:31:21.978Z,97921.67
2022-12-11T16:33:50.115Z,97923.17
2022-12-11T16:36:19.706Z,97924.79
2022-12-11T16:38:53.586Z,97922.70
2022-12-11T16:41:23.381Z,97920.92
2022-12-11T16:43:51.664Z,97917.14
2022-12-11T16:46:21.349Z,97910.31
2022-12-11T16:48:50.055Z,97909.45
2022-12-11T16:51:18.153Z,97903.80
2022-12-11T16:53:46.791Z,97901.65
2022-12-11T16:56:14.885Z,97907.73
2022-12-11T16:58:43.063Z,97908.07
2022-12-11T17:01:15.492Z,97908.71
2022-12-11T17:03:44.577Z,97911.23
2022-12-11T17:06:17.665Z,97905.71
2022-12-11T17:08:46.913Z,97906.91
2022-12-11T17:11:18.682Z,97906.45
2022-12-11T17:13:46.772Z,97909.44
2022-12-11T17:16:16.746Z,97918.00
2022-12-11T17:18:44.945Z,97911.89
2022-12-11T17:21:15.717Z,97910.52
2022-12-11T17:23:45.241Z,97912.48
2022-12-11T17:26:13.689Z,97917.95
2022-12-11T17:28:41.727Z,97920.15
2022-12-11T17:31:13.674Z,97918.03
2022-12-11T17:33:42.495Z,97917.92
2022-12-11T17:36:14.087Z,97922.38
2022-12-11T17:38:42.172Z,97923.86
2022-12-11T17:41:19.824Z,97927.39
2022-12-11T17:43:50.795Z,97924.75
2022-12-11T17:46:20.154Z,97928.46
2022-12-11T17:48:49.309Z,97927.77
2022-12-11T17:51:28.159Z,97933.07
2022-12-11T17:54:05.327Z,97938.40
2022-12-11T17:56:35.024Z,97940.81
2022-12-11T17:59:03.412Z,97942.52
2022-12-11T18:01:31.564Z,97944.52
2022-12-11T18:04:01.994Z,97947.55
2022-12-11T18:06:30.886Z,97949.94
2022-12-11T18:08:58.896Z,97954.79
2022-12-11T18:11:27.015Z,97955.88
2022-12-11T18:13:55.498Z,97955.00
2022-12-11T18:16:32.608Z,97957.59
2022-12-11T18:19:01.809Z,97963.20
2022-12-11T18:21:33.881Z,97965.81
2022-12-11T18:24:03.016Z,97961.25
2022-12-11T18:26:31.436Z,97959.66
2022-12-11T18:28:59.487Z,97955.52
2022-12-11T18:31:27.495Z,97954.87
2022-12-11T18:33:56.355Z,97951.08
2022-12-11T18:36:24.396Z,97956.27
2022-12-11T18:38:52.576Z,97955.30
2022-12-11T18:41:20.716Z,97962.77
2022-12-11T18:43:48.911Z,97961.82
2022-12-11T18:46:19.137Z,97957.35
2022-12-11T18:48:48.546Z,97960.14
2022-12-11T18:51:22.689Z,97962.81
2022-12-11T18:53:51.705Z,97959.60
2022-12-11T18:56:21.133Z,97958.30
2022-12-11T18:58:52.255Z,97959.89
2022-12-11T19:01:29.122Z,97957.11
2022-12-11T19:04:03.583Z,97961.10
2022-12-11T19:06:35.784Z,97959.23
2022-12-11T19:09:06.064Z,97958.94
2022-12-11T19:11:35.652Z,97960.34
2022-12-11T19:14:05.354Z,97963.26
2022-12-11T19:16:37.518Z,97970.77
2022-12-11T19:19:12.659Z,97970.96
2022-12-11T19:21:41.701Z,97971.40
2022-12-11T19:24:15.305Z,97968.61
2022-12-11T19:26:43.517Z,97968.36
2022-12-11T19:29:20.310Z,97969.70
2022-12-11T19:31:48.553Z,97965.32
2022-12-11T19:34:17.052Z,97962.39
2022-12-11T19:36:45.238Z,97962.92
2022-12-11T19:39:14.629Z,97970.02
2022-12-11T19:41:43.001Z,97966.95
2022-12-11T19:44:12.087Z,97971.55
2022-12-11T19:46:40.444Z,97971.19
2022-12-11T19:49:08.594Z,97967.41
2022-12-11T19:51:38.986Z,97962.27
2022-12-11T19:54:09.986Z,97964.74
2022-12-11T19:56:38.420Z,97957.73
2022-12-11T19:59:09.065Z,97957.89
2022-12-11T20:01:38.304Z,97963.16
2022-12-11T20:04:12.876Z,97958.68
2022-12-11T20:06:43.443Z,97955.56
2022-12-11T20:09:13.289Z,97955.46
2022-12-11T20:11:43.924Z,97958.70
2022-12-11T20:14:26.405Z,97960.98
2022-12-11T20:17:13.759Z,97965.20
2022-12-11T20:19:43.284Z,97968.89
2022-12-11T20:22:11.901Z,97969.84
2022-12-11T20:24:40.746Z,97969.70
2022-12-11T20:27:10.236Z,97971.27
2022-12-11T20:29:39.113Z,97974.48
2022-12-11T20:32:07.752Z,97974.98
2022-12-11T20:34:35.921Z,97975.61
2022-12-11T20:37:04.019Z,97975.54
2022-12-11T20:39:32.182Z,97980.77
2022-12-11T20:42:01.317Z,97981.53
2022-12-11T20:44:29.365Z,97977.73
2022-12-11T20:46:57.450Z,97982.64
2022-12-11T20:49:25.621Z,97981.11
2022-12-11T20:51:54.080Z,97984.45
2022-12-11T20:54:22.111Z,97983.03
2022-12-11T20:56:51.524Z,97982.55
2022-12-11T20:59:19.634Z,97984.75
2022-12-11T21:01:47.711Z,97987.31
2022-12-11T21:04:15.869Z,97992.16
2022-12-11T21:06:43.912Z,97997.66
2022-12-11T21:09:19.511Z,98000.92
2022-12-11T21:11:48.384Z,98005.00
2022-12-11T21:14:17.925Z,98009.80
2022-12-11T21:16:46.676Z,98006.83
2022-12-11T21:19:17.800Z,98006.85
2022-12-11T21:21:46.436Z,98010.50
2022-12-11T21:24:18.795Z,98012.11
2022-12-11T21:26:48.123Z,98015.29
2022-12-11T21:29:17.001Z,98011.77
2022-12-11T21:31:45.317Z,98006.05
2022-12-11T21:34:14.257Z,98002.45
2022-12-11T21:36:42.655Z,98004.21
2022-12-11T21:39:12.452Z,98004.05
2022-12-11T21:41:41.877Z,98004.55
2022-12-11T21:46:59.631Z,98000.69
2022-12-11T21:49:27.748Z,98004.34
2022-12-11T21:51:56.157Z,98005.08
2022-12-11T21:54:24.254Z,98005.31
2022-12-11T21:56:52.318Z,98005.48
2022-12-11T21:59:20.644Z,98003.02
2022-12-11T22:01:48.636Z,98008.14
2022-12-11T22:04:16.942Z,98005.16
2022-12-11T22:06:47.362Z,98008.35
2022-12-11T22:09:17.907Z,98012.35
2022-12-11T22:11:46.963Z,98014.73
2022-12-11T22:14:17.103Z,98013.10
2022-12-11T22:16:45.814Z,98014.94
2022-12-11T22:19:14.040Z,98010.59
2022-12-11T22:21:42.574Z,98013.48
2022-12-11T22:24:10.641Z,98009.90
2022-12-11T22:26:39.208Z,98010.05
2022-12-11T22:29:07.258Z,98004.04
2022-12-11T22:31:35.312Z,98002.38
2022-12-11T22:34:03.334Z,97996.94
2022-12-11T22:36:31.367Z,97996.15
2022-12-11T22:39:00.581Z,97997.22
2022-12-11T22:41:31.428Z,98004.84
2022-12-11T22:44:00.011Z,98006.26
2022-12-11T22:46:30.196Z,98006.84
2022-12-11T22:48:59.000Z,98005.98
2022-12-11T22:51:27.189Z,98003.80
2022-12-11T22:53:55.243Z,98004.23
2022-12-11T22:56:23.332Z,97997.98
2022-12-11T22:58:51.429Z,97998.81
2022-12-11T23:01:24.901Z,97995.48
2022-12-11T23:03:53.403Z,97996.77
2022-12-11T23:06:25.042Z,98001.21
2022-12-11T23:08:56.983Z,97999.95
2022-12-11T23:11:31.417Z,98003.80
2022-12-11T23:13:59.451Z,98003.20
2022-12-11T23:16:27.691Z,98005.36
2022-12-11T23:18:57.697Z,98000.02
2022-12-11T23:21:28.095Z,97991.75
2022-12-11T23:23:57.849Z,97990.83
2022-12-11T23:26:27.496Z,97989.11
2022-12-11T23:28:56.996Z,97990.11
2022-12-11T23:31:25.893Z,97996.83
2022-12-11T23:33:54.380Z,98004.66
2022-12-11T23:36:23.072Z,98010.14
2022-12-11T23:38:54.803Z,98020.15
2022-12-11T23:41:23.730Z,98022.67
2022-12-11T23:43:52.427Z,98019.59
2022-12-11T23:46:22.946Z,98014.06
2022-12-11T23:48:52.455Z,98012.11
2022-12-11T23:51:23.191Z,98009.34
2022-12-11T23:53:52.538Z,98013.38
2022-12-11T23:56:25.024Z,98007.23
2022-12-11T23:58:53.846Z,98006.30
